sensor_id;sensor_type;location;lat;lon;timestamp;temperature;humidity
32334;DHT22;18810;53.040;8.850;2023-08-21T00:01:36;19.60;99.90
32334;DHT22;18810;53.040;8.850;2023-08-21T00:04:02;19.60;99.90
32334;DHT22;18810;53.040;8.850;2023-08-21T00:06:28;19.50;99.90
32334;DHT22;18810;53.040;8.850;2023-08-21T00:08:54;19.50;99.90
32334;DHT22;18810;53.040;8.850;2023-08-21T00:11:20;19.50;99.90
32334;DHT22;18810;53.040;8.850;2023-08-21T00:13:46;19.40;99.90
32334;DHT22;18810;53.040;8.850;2023-08-21T00:16:14;19.30;99.90
32334;DHT22;18810;53.040;8.850;2023-08-21T00:18:39;19.40;99.90
32334;DHT22;18810;53.040;8.850;2023-08-21T00:21:05;19.30;99.90
32334;DHT22;18810;53.040;8.850;2023-08-21T00:23:31;19.30;99.90
32334;DHT22;18810;53.040;8.850;2023-08-21T00:25:57;19.30;99.90
32334;DHT22;18810;53.040;8.850;2023-08-21T00:28:23;19.30;99.90
32334;DHT22;18810;53.040;8.850;2023-08-21T00:30:48;19.20;99.90
32334;DHT22;18810;53.040;8.850;2023-08-21T00:33:14;19.20;99.90
32334;DHT22;18810;53.040;8.850;2023-08-21T00:35:40;19.20;99.90
32334;DHT22;18810;53.040;8.850;2023-08-21T00:38:07;19.10;99.90
32334;DHT22;18810;53.040;8.850;2023-08-21T00:40:32;19.10;99.90
32334;DHT22;18810;53.040;8.850;2023-08-21T00:42:58;19.10;99.90
32334;DHT22;18810;53.040;8.850;2023-08-21T00:45:24;19.00;99.90
32334;DHT22;18810;53.040;8.850;2023-08-21T00:47:50;19.00;99.90
32334;DHT22;18810;53.040;8.850;2023-08-21T00:50:15;19.00;99.90
32334;DHT22;18810;53.040;8.850;2023-08-21T00:52:45;19.00;99.90
32334;DHT22;18810;53.040;8.850;2023-08-21T00:55:13;18.90;99.90
32334;DHT22;18810;53.040;8.850;2023-08-21T00:57:39;18.90;99.90
32334;DHT22;18810;53.040;8.850;2023-08-21T01:00:06;18.80;99.90
32334;DHT22;18810;53.040;8.850;2023-08-21T01:02:33;18.80;99.90
32334;DHT22;18810;53.040;8.850;2023-08-21T01:04:59;18.70;99.90
32334;DHT22;18810;53.040;8.850;2023-08-21T01:07:25;18.70;99.90
32334;DHT22;18810;53.040;8.850;2023-08-21T01:10:11;18.60;99.90
32334;DHT22;18810;53.040;8.850;2023-08-21T01:12:50;18.70;99.90
32334;DHT22;18810;53.040;8.850;2023-08-21T01:15:18;18.70;99.90
32334;DHT22;18810;53.040;8.850;2023-08-21T01:17:46;18.60;99.90
32334;DHT22;18810;53.040;8.850;2023-08-21T01:20:13;18.70;99.90
32334;DHT22;18810;53.040;8.850;2023-08-21T01:22:41;18.70;99.90
32334;DHT22;18810;53.040;8.850;2023-08-21T01:25:11;18.60;99.90
32334;DHT22;18810;53.040;8.850;2023-08-21T01:27:40;18.60;99.90
32334;DHT22;18810;53.040;8.850;2023-08-21T01:30:07;18.60;99.90
32334;DHT22;18810;53.040;8.850;2023-08-21T01:32:53;18.50;99.90
32334;DHT22;18810;53.040;8.850;2023-08-21T01:35:24;18.60;99.90
32334;DHT22;18810;53.040;8.850;2023-08-21T01:37:51;18.50;99.90
32334;DHT22;18810;53.040;8.850;2023-08-21T01:40:24;18.50;99.90
32334;DHT22;18810;53.040;8.850;2023-08-21T01:42:50;18.40;99.90
32334;DHT22;18810;53.040;8.850;2023-08-21T01:45:17;18.40;99.90
32334;DHT22;18810;53.040;8.850;2023-08-21T01:47:43;18.40;99.90
32334;DHT22;18810;53.040;8.850;2023-08-21T01:50:09;18.40;99.90
32334;DHT22;18810;53.040;8.850;2023-08-21T01:52:35;18.30;99.90
32334;DHT22;18810;53.040;8.850;2023-08-21T01:55:00;18.30;99.90
32334;DHT22;18810;53.040;8.850;2023-08-21T01:57:26;18.20;99.90
32334;DHT22;18810;53.040;8.850;2023-08-21T01:59:52;18.20;99.90
32334;DHT22;18810;53.040;8.850;2023-08-21T02:02:18;18.10;99.90
32334;DHT22;18810;53.040;8.850;2023-08-21T02:04:43;18.10;99.90
32334;DHT22;18810;53.040;8.850;2023-08-21T02:07:09;18.00;99.90
32334;DHT22;18810;53.040;8.850;2023-08-21T02:09:35;18.00;99.90
32334;DHT22;18810;53.040;8.850;2023-08-21T02:12:00;18.00;99.90
32334;DHT22;18810;53.040;8.850;2023-08-21T02:14:26;18.00;99.90
32334;DHT22;18810;53.040;8.850;2023-08-21T02:16:52;17.90;99.90
32334;DHT22;18810;53.040;8.850;2023-08-21T02:19:17;17.90;99.90
32334;DHT22;18810;53.040;8.850;2023-08-21T02:21:43;17.90;99.90
32334;DHT22;18810;53.040;8.850;2023-08-21T02:24:09;17.90;99.90
32334;DHT22;18810;53.040;8.850;2023-08-21T02:26:34;17.90;99.90
32334;DHT22;18810;53.040;8.850;2023-08-21T02:29:00;17.90;99.90
32334;DHT22;18810;53.040;8.850;2023-08-21T02:31:26;17.90;99.90
32334;DHT22;18810;53.040;8.850;2023-08-21T02:33:51;17.80;99.90
32334;DHT22;18810;53.040;8.850;2023-08-21T02:36:17;17.80;99.90
32334;DHT22;18810;53.040;8.850;2023-08-21T02:38:43;17.90;99.90
32334;DHT22;18810;53.040;8.850;2023-08-21T02:41:09;17.70;99.90
32334;DHT22;18810;53.040;8.850;2023-08-21T02:43:34;17.70;99.90
32334;DHT22;18810;53.040;8.850;2023-08-21T02:46:00;17.70;99.90
32334;DHT22;18810;53.040;8.850;2023-08-21T02:48:26;17.70;99.90
32334;DHT22;18810;53.040;8.850;2023-08-21T02:50:52;17.60;99.90
32334;DHT22;18810;53.040;8.850;2023-08-21T02:53:17;17.60;99.90
32334;DHT22;18810;53.040;8.850;2023-08-21T02:55:43;17.50;99.90
32334;DHT22;18810;53.040;8.850;2023-08-21T02:58:09;17.50;99.90
32334;DHT22;18810;53.040;8.850;2023-08-21T03:00:35;17.50;99.90
32334;DHT22;18810;53.040;8.850;2023-08-21T03:03:00;17.50;99.90
32334;DHT22;18810;53.040;8.850;2023-08-21T03:05:26;17.40;99.90
32334;DHT22;18810;53.040;8.850;2023-08-21T03:07:52;17.30;99.90
32334;DHT22;18810;53.040;8.850;2023-08-21T03:10:18;17.30;99.90
32334;DHT22;18810;53.040;8.850;2023-08-21T03:12:44;17.30;99.90
32334;DHT22;18810;53.040;8.850;2023-08-21T03:15:10;17.30;99.90
32334;DHT22;18810;53.040;8.850;2023-08-21T03:17:35;17.30;99.90
32334;DHT22;18810;53.040;8.850;2023-08-21T03:20:02;17.30;99.90
32334;DHT22;18810;53.040;8.850;2023-08-21T03:22:30;17.30;99.90
32334;DHT22;18810;53.040;8.850;2023-08-21T03:24:57;17.30;99.90
32334;DHT22;18810;53.040;8.850;2023-08-21T03:27:23;17.20;99.90
32334;DHT22;18810;53.040;8.850;2023-08-21T03:29:49;17.20;99.90
32334;DHT22;18810;53.040;8.850;2023-08-21T03:32:18;17.20;99.90
32334;DHT22;18810;53.040;8.850;2023-08-21T03:34:44;17.20;99.90
32334;DHT22;18810;53.040;8.850;2023-08-21T03:37:10;17.20;99.90
32334;DHT22;18810;53.040;8.850;2023-08-21T03:39:36;17.20;99.90
32334;DHT22;18810;53.040;8.850;2023-08-21T03:42:01;17.10;99.90
32334;DHT22;18810;53.040;8.850;2023-08-21T03:44:27;17.10;99.90
32334;DHT22;18810;53.040;8.850;2023-08-21T03:46:53;17.20;99.90
32334;DHT22;18810;53.040;8.850;2023-08-21T03:49:19;17.20;99.90
32334;DHT22;18810;53.040;8.850;2023-08-21T03:51:44;17.20;99.90
32334;DHT22;18810;53.040;8.850;2023-08-21T03:54:10;17.20;99.90
32334;DHT22;18810;53.040;8.850;2023-08-21T03:56:36;17.20;99.90
32334;DHT22;18810;53.040;8.850;2023-08-21T03:59:02;17.10;99.90
32334;DHT22;18810;53.040;8.850;2023-08-21T04:01:28;17.10;99.90
32334;DHT22;18810;53.040;8.850;2023-08-21T04:03:54;17.10;99.90
32334;DHT22;18810;53.040;8.850;2023-08-21T04:06:19;17.00;99.90
32334;DHT22;18810;53.040;8.850;2023-08-21T04:08:45;17.10;99.90
32334;DHT22;18810;53.040;8.850;2023-08-21T04:11:11;17.00;99.90
32334;DHT22;18810;53.040;8.850;2023-08-21T04:13:37;16.90;99.90
32334;DHT22;18810;53.040;8.850;2023-08-21T04:16:02;16.90;99.90
32334;DHT22;18810;53.040;8.850;2023-08-21T04:18:28;16.90;99.90
32334;DHT22;18810;53.040;8.850;2023-08-21T04:20:54;17.00;99.90
32334;DHT22;18810;53.040;8.850;2023-08-21T04:23:19;16.90;99.90
32334;DHT22;18810;53.040;8.850;2023-08-21T04:25:45;16.90;99.90
32334;DHT22;18810;53.040;8.850;2023-08-21T04:28:11;16.90;99.90
32334;DHT22;18810;53.040;8.850;2023-08-21T04:30:36;16.80;99.90
32334;DHT22;18810;53.040;8.850;2023-08-21T04:33:02;16.80;99.90
32334;DHT22;18810;53.040;8.850;2023-08-21T04:35:28;16.90;99.90
32334;DHT22;18810;53.040;8.850;2023-08-21T04:37:54;16.80;99.90
32334;DHT22;18810;53.040;8.850;2023-08-21T04:40:20;16.90;99.90
32334;DHT22;18810;53.040;8.850;2023-08-21T04:42:47;16.90;99.90
32334;DHT22;18810;53.040;8.850;2023-08-21T04:45:13;16.90;99.90
32334;DHT22;18810;53.040;8.850;2023-08-21T04:47:39;16.90;99.90
32334;DHT22;18810;53.040;8.850;2023-08-21T04:50:05;16.90;99.90
32334;DHT22;18810;53.040;8.850;2023-08-21T04:52:30;17.00;99.90
32334;DHT22;18810;53.040;8.850;2023-08-21T04:54:56;17.00;99.90
32334;DHT22;18810;53.040;8.850;2023-08-21T04:57:22;17.00;99.90
32334;DHT22;18810;53.040;8.850;2023-08-21T04:59:48;17.00;99.90
32334;DHT22;18810;53.040;8.850;2023-08-21T05:02:13;17.00;99.90
32334;DHT22;18810;53.040;8.850;2023-08-21T05:04:39;17.00;99.90
32334;DHT22;18810;53.040;8.850;2023-08-21T05:07:05;17.10;99.90
32334;DHT22;18810;53.040;8.850;2023-08-21T05:09:32;17.10;99.90
32334;DHT22;18810;53.040;8.850;2023-08-21T05:11:58;17.10;99.90
32334;DHT22;18810;53.040;8.850;2023-08-21T05:14:23;17.10;99.90
32334;DHT22;18810;53.040;8.850;2023-08-21T05:16:49;17.20;99.90
32334;DHT22;18810;53.040;8.850;2023-08-21T05:19:16;17.20;99.90
32334;DHT22;18810;53.040;8.850;2023-08-21T05:21:42;17.20;99.90
32334;DHT22;18810;53.040;8.850;2023-08-21T05:24:08;17.30;99.90
32334;DHT22;18810;53.040;8.850;2023-08-21T05:26:38;17.40;99.90
32334;DHT22;18810;53.040;8.850;2023-08-21T05:29:04;17.40;99.90
32334;DHT22;18810;53.040;8.850;2023-08-21T05:31:30;17.50;99.90
32334;DHT22;18810;53.040;8.850;2023-08-21T05:33:56;17.60;99.90
32334;DHT22;18810;53.040;8.850;2023-08-21T05:36:21;17.60;99.90
32334;DHT22;18810;53.040;8.850;2023-08-21T05:38:47;17.60;99.90
32334;DHT22;18810;53.040;8.850;2023-08-21T05:41:14;17.70;99.90
32334;DHT22;18810;53.040;8.850;2023-08-21T05:43:40;17.80;99.90
32334;DHT22;18810;53.040;8.850;2023-08-21T05:46:08;17.80;99.90
32334;DHT22;18810;53.040;8.850;2023-08-21T05:48:33;17.90;99.90
32334;DHT22;18810;53.040;8.850;2023-08-21T05:50:59;18.20;99.90
32334;DHT22;18810;53.040;8.850;2023-08-21T05:53:25;18.50;99.90
32334;DHT22;18810;53.040;8.850;2023-08-21T05:55:52;18.90;99.90
32334;DHT22;18810;53.040;8.850;2023-08-21T05:58:18;19.40;99.90
32334;DHT22;18810;53.040;8.850;2023-08-21T06:00:44;20.40;99.90
32334;DHT22;18810;53.040;8.850;2023-08-21T06:03:10;21.60;99.90
32334;DHT22;18810;53.040;8.850;2023-08-21T06:05:35;23.00;99.90
32334;DHT22;18810;53.040;8.850;2023-08-21T06:08:01;24.40;99.90
32334;DHT22;18810;53.040;8.850;2023-08-21T06:10:27;25.10;99.90
32334;DHT22;18810;53.040;8.850;2023-08-21T06:12:53;25.20;99.90
32334;DHT22;18810;53.040;8.850;2023-08-21T06:15:18;24.80;99.90
32334;DHT22;18810;53.040;8.850;2023-08-21T06:17:44;23.90;99.90
32334;DHT22;18810;53.040;8.850;2023-08-21T06:20:13;22.90;99.90
32334;DHT22;18810;53.040;8.850;2023-08-21T06:22:39;22.10;99.90
32334;DHT22;18810;53.040;8.850;2023-08-21T06:25:05;21.40;99.90
32334;DHT22;18810;53.040;8.850;2023-08-21T06:27:31;21.20;99.90
32334;DHT22;18810;53.040;8.850;2023-08-21T06:29:57;21.00;99.90
32334;DHT22;18810;53.040;8.850;2023-08-21T06:32:22;20.80;99.90
32334;DHT22;18810;53.040;8.850;2023-08-21T06:34:48;20.70;99.90
32334;DHT22;18810;53.040;8.850;2023-08-21T06:37:14;20.90;99.90
32334;DHT22;18810;53.040;8.850;2023-08-21T06:39:39;21.10;99.90
32334;DHT22;18810;53.040;8.850;2023-08-21T06:42:05;21.60;99.90
32334;DHT22;18810;53.040;8.850;2023-08-21T06:44:31;22.50;99.90
32334;DHT22;18810;53.040;8.850;2023-08-21T06:46:57;23.70;99.90
32334;DHT22;18810;53.040;8.850;2023-08-21T06:49:23;24.80;99.90
32334;DHT22;18810;53.040;8.850;2023-08-21T06:51:49;26.10;99.90
32334;DHT22;18810;53.040;8.850;2023-08-21T06:54:15;26.90;99.90
32334;DHT22;18810;53.040;8.850;2023-08-21T06:56:40;27.60;99.90
32334;DHT22;18810;53.040;8.850;2023-08-21T06:59:06;28.00;99.90
32334;DHT22;18810;53.040;8.850;2023-08-21T07:01:32;28.20;99.90
32334;DHT22;18810;53.040;8.850;2023-08-21T07:03:58;28.50;99.90
32334;DHT22;18810;53.040;8.850;2023-08-21T07:06:23;28.50;99.90
32334;DHT22;18810;53.040;8.850;2023-08-21T07:08:49;28.30;99.90
32334;DHT22;18810;53.040;8.850;2023-08-21T07:11:15;28.40;99.90
32334;DHT22;18810;53.040;8.850;2023-08-21T07:13:42;28.40;99.90
32334;DHT22;18810;53.040;8.850;2023-08-21T07:16:08;28.30;99.90
32334;DHT22;18810;53.040;8.850;2023-08-21T07:18:35;27.80;99.90
32334;DHT22;18810;53.040;8.850;2023-08-21T07:21:01;27.80;99.90
32334;DHT22;18810;53.040;8.850;2023-08-21T07:23:29;27.60;99.90
32334;DHT22;18810;53.040;8.850;2023-08-21T07:25:54;27.40;99.90
32334;DHT22;18810;53.040;8.850;2023-08-21T07:28:20;27.10;99.90
32334;DHT22;18810;53.040;8.850;2023-08-21T07:30:46;27.30;99.90
32334;DHT22;18810;53.040;8.850;2023-08-21T07:33:11;27.40;99.90
32334;DHT22;18810;53.040;8.850;2023-08-21T07:35:37;27.30;99.90
32334;DHT22;18810;53.040;8.850;2023-08-21T07:38:03;27.20;99.90
32334;DHT22;18810;53.040;8.850;2023-08-21T07:40:29;27.00;99.90
32334;DHT22;18810;53.040;8.850;2023-08-21T07:42:55;27.00;99.90
32334;DHT22;18810;53.040;8.850;2023-08-21T07:45:20;27.20;99.90
32334;DHT22;18810;53.040;8.850;2023-08-21T07:47:46;27.50;99.90
32334;DHT22;18810;53.040;8.850;2023-08-21T07:50:12;27.60;99.90
32334;DHT22;18810;53.040;8.850;2023-08-21T07:52:39;27.70;99.90
32334;DHT22;18810;53.040;8.850;2023-08-21T07:55:05;27.70;99.90
32334;DHT22;18810;53.040;8.850;2023-08-21T07:57:31;27.80;99.90
32334;DHT22;18810;53.040;8.850;2023-08-21T07:59:57;27.90;99.90
32334;DHT22;18810;53.040;8.850;2023-08-21T08:02:24;28.10;99.90
32334;DHT22;18810;53.040;8.850;2023-08-21T08:04:49;28.10;99.90
32334;DHT22;18810;53.040;8.850;2023-08-21T08:07:15;27.50;99.90
32334;DHT22;18810;53.040;8.850;2023-08-21T08:09:41;27.60;99.90
32334;DHT22;18810;53.040;8.850;2023-08-21T08:12:07;27.60;99.90
32334;DHT22;18810;53.040;8.850;2023-08-21T08:14:32;27.60;99.50
32334;DHT22;18810;53.040;8.850;2023-08-21T08:16:58;27.90;99.40
32334;DHT22;18810;53.040;8.850;2023-08-21T08:19:24;28.10;99.50
32334;DHT22;18810;53.040;8.850;2023-08-21T08:21:50;28.30;99.70
32334;DHT22;18810;53.040;8.850;2023-08-21T08:24:15;28.50;99.70
32334;DHT22;18810;53.040;8.850;2023-08-21T08:26:41;28.60;99.00
32334;DHT22;18810;53.040;8.850;2023-08-21T08:29:09;28.60;99.00
32334;DHT22;18810;53.040;8.850;2023-08-21T08:31:34;28.80;97.30
32334;DHT22;18810;53.040;8.850;2023-08-21T08:34:00;29.00;97.80
32334;DHT22;18810;53.040;8.850;2023-08-21T08:36:26;29.20;97.30
32334;DHT22;18810;53.040;8.850;2023-08-21T08:38:52;29.20;97.30
32334;DHT22;18810;53.040;8.850;2023-08-21T08:41:43;29.10;97.50
32334;DHT22;18810;53.040;8.850;2023-08-21T08:44:10;29.00;97.40
32334;DHT22;18810;53.040;8.850;2023-08-21T08:46:38;28.90;97.50
32334;DHT22;18810;53.040;8.850;2023-08-21T08:49:03;28.70;97.30
32334;DHT22;18810;53.040;8.850;2023-08-21T08:51:30;28.60;97.00
32334;DHT22;18810;53.040;8.850;2023-08-21T08:53:58;28.70;96.90
32334;DHT22;18810;53.040;8.850;2023-08-21T08:56:24;29.30;96.10
32334;DHT22;18810;53.040;8.850;2023-08-21T08:58:51;30.30;94.80
32334;DHT22;18810;53.040;8.850;2023-08-21T09:01:16;30.30;95.00
32334;DHT22;18810;53.040;8.850;2023-08-21T09:03:42;30.10;95.30
32334;DHT22;18810;53.040;8.850;2023-08-21T09:06:08;29.80;95.40
32334;DHT22;18810;53.040;8.850;2023-08-21T09:08:33;30.10;94.00
32334;DHT22;18810;53.040;8.850;2023-08-21T09:11:02;30.40;94.40
32334;DHT22;18810;53.040;8.850;2023-08-21T09:13:31;30.60;93.50
32334;DHT22;18810;53.040;8.850;2023-08-21T09:15:57;30.50;92.20
32334;DHT22;18810;53.040;8.850;2023-08-21T09:18:24;30.30;92.30
32334;DHT22;18810;53.040;8.850;2023-08-21T09:20:49;30.20;91.70
32334;DHT22;18810;53.040;8.850;2023-08-21T09:23:16;30.60;91.70
32334;DHT22;18810;53.040;8.850;2023-08-21T09:25:45;30.90;91.30
32334;DHT22;18810;53.040;8.850;2023-08-21T09:28:13;31.10;91.40
32334;DHT22;18810;53.040;8.850;2023-08-21T09:30:50;31.70;90.10
32334;DHT22;18810;53.040;8.850;2023-08-21T09:33:18;32.40;90.00
32334;DHT22;18810;53.040;8.850;2023-08-21T09:35:44;32.20;88.20
32334;DHT22;18810;53.040;8.850;2023-08-21T09:38:10;32.30;87.30
32334;DHT22;18810;53.040;8.850;2023-08-21T09:40:49;32.40;88.20
32334;DHT22;18810;53.040;8.850;2023-08-21T09:43:16;32.50;88.60
32334;DHT22;18810;53.040;8.850;2023-08-21T09:45:46;33.00;84.20
32334;DHT22;18810;53.040;8.850;2023-08-21T09:48:12;33.00;84.60
32334;DHT22;18810;53.040;8.850;2023-08-21T09:50:38;33.00;83.20
32334;DHT22;18810;53.040;8.850;2023-08-21T09:53:06;32.90;82.80
32334;DHT22;18810;53.040;8.850;2023-08-21T09:55:36;33.20;82.60
32334;DHT22;18810;53.040;8.850;2023-08-21T09:58:02;33.30;82.30
32334;DHT22;18810;53.040;8.850;2023-08-21T10:00:36;33.20;80.30
32334;DHT22;18810;53.040;8.850;2023-08-21T10:03:07;33.00;83.30
32334;DHT22;18810;53.040;8.850;2023-08-21T10:05:34;33.10;81.30
32334;DHT22;18810;53.040;8.850;2023-08-21T10:08:01;33.40;82.30
32334;DHT22;18810;53.040;8.850;2023-08-21T10:10:35;33.30;81.00
32334;DHT22;18810;53.040;8.850;2023-08-21T10:13:02;32.90;81.50
32334;DHT22;18810;53.040;8.850;2023-08-21T10:15:28;32.50;81.50
32334;DHT22;18810;53.040;8.850;2023-08-21T10:17:55;32.00;82.30
32334;DHT22;18810;53.040;8.850;2023-08-21T10:20:22;31.70;83.90
32334;DHT22;18810;53.040;8.850;2023-08-21T10:22:52;31.40;85.00
32334;DHT22;18810;53.040;8.850;2023-08-21T10:25:23;31.40;84.10
32334;DHT22;18810;53.040;8.850;2023-08-21T10:27:58;31.20;83.50
32334;DHT22;18810;53.040;8.850;2023-08-21T10:30:27;31.40;83.50
32334;DHT22;18810;53.040;8.850;2023-08-21T10:32:54;31.60;81.30
32334;DHT22;18810;53.040;8.850;2023-08-21T10:35:28;32.00;82.90
32334;DHT22;18810;53.040;8.850;2023-08-21T10:38:12;32.40;82.20
32334;DHT22;18810;53.040;8.850;2023-08-21T10:40:40;33.00;81.70
32334;DHT22;18810;53.040;8.850;2023-08-21T10:43:46;33.70;78.30
32334;DHT22;18810;53.040;8.850;2023-08-21T10:46:12;34.50;76.20
32334;DHT22;18810;53.040;8.850;2023-08-21T10:48:39;34.70;77.60
32334;DHT22;18810;53.040;8.850;2023-08-21T10:51:06;35.10;75.70
32334;DHT22;18810;53.040;8.850;2023-08-21T10:53:33;35.40;74.10
32334;DHT22;18810;53.040;8.850;2023-08-21T10:56:06;35.90;73.10
32334;DHT22;18810;53.040;8.850;2023-08-21T10:58:38;36.10;72.10
32334;DHT22;18810;53.040;8.850;2023-08-21T11:01:04;36.20;72.80
32334;DHT22;18810;53.040;8.850;2023-08-21T11:03:29;36.70;70.20
32334;DHT22;18810;53.040;8.850;2023-08-21T11:06:03;37.10;69.80
32334;DHT22;18810;53.040;8.850;2023-08-21T11:08:29;37.40;70.10
32334;DHT22;18810;53.040;8.850;2023-08-21T11:10:55;37.80;68.70
32334;DHT22;18810;53.040;8.850;2023-08-21T11:13:23;38.20;71.10
32334;DHT22;18810;53.040;8.850;2023-08-21T11:15:57;38.40;68.20
32334;DHT22;18810;53.040;8.850;2023-08-21T11:18:36;38.20;65.00
32334;DHT22;18810;53.040;8.850;2023-08-21T11:21:08;37.70;65.90
32334;DHT22;18810;53.040;8.850;2023-08-21T11:23:35;37.20;68.10
32334;DHT22;18810;53.040;8.850;2023-08-21T11:26:02;37.50;66.90
32334;DHT22;18810;53.040;8.850;2023-08-21T11:28:30;37.50;66.00
32334;DHT22;18810;53.040;8.850;2023-08-21T11:30:56;37.00;66.40
32334;DHT22;18810;53.040;8.850;2023-08-21T11:33:22;37.30;66.80
32334;DHT22;18810;53.040;8.850;2023-08-21T11:35:49;37.70;67.00
32334;DHT22;18810;53.040;8.850;2023-08-21T11:38:20;37.80;63.80
32334;DHT22;18810;53.040;8.850;2023-08-21T11:40:57;37.50;61.70
32334;DHT22;18810;53.040;8.850;2023-08-21T11:46:07;37.40;61.50
32334;DHT22;18810;53.040;8.850;2023-08-21T11:48:33;37.50;60.20
32334;DHT22;18810;53.040;8.850;2023-08-21T11:51:01;38.00;59.90
32334;DHT22;18810;53.040;8.850;2023-08-21T11:53:31;38.00;58.90
32334;DHT22;18810;53.040;8.850;2023-08-21T11:55:58;38.10;60.30
32334;DHT22;18810;53.040;8.850;2023-08-21T11:58:26;38.00;58.40
32334;DHT22;18810;53.040;8.850;2023-08-21T12:00:52;37.60;59.00
32334;DHT22;18810;53.040;8.850;2023-08-21T12:03:18;37.00;59.80
32334;DHT22;18810;53.040;8.850;2023-08-21T12:05:44;36.30;61.50
32334;DHT22;18810;53.040;8.850;2023-08-21T12:08:10;35.90;63.20
32334;DHT22;18810;53.040;8.850;2023-08-21T12:10:36;35.70;61.40
32334;DHT22;18810;53.040;8.850;2023-08-21T12:13:02;35.50;60.80
32334;DHT22;18810;53.040;8.850;2023-08-21T12:15:28;36.10;60.20
32334;DHT22;18810;53.040;8.850;2023-08-21T12:17:53;36.80;58.10
32334;DHT22;18810;53.040;8.850;2023-08-21T12:20:20;37.20;60.30
32334;DHT22;18810;53.040;8.850;2023-08-21T12:22:45;37.70;60.60
32334;DHT22;18810;53.040;8.850;2023-08-21T12:25:12;38.20;56.80
32334;DHT22;18810;53.040;8.850;2023-08-21T12:27:38;38.40;57.80
32334;DHT22;18810;53.040;8.850;2023-08-21T12:30:05;37.90;58.40
32334;DHT22;18810;53.040;8.850;2023-08-21T12:32:31;37.60;56.80
32334;DHT22;18810;53.040;8.850;2023-08-21T12:34:57;38.10;55.70
32334;DHT22;18810;53.040;8.850;2023-08-21T12:37:23;38.80;56.60
32334;DHT22;18810;53.040;8.850;2023-08-21T12:39:49;39.60;53.80
32334;DHT22;18810;53.040;8.850;2023-08-21T12:42:14;40.10;50.80
32334;DHT22;18810;53.040;8.850;2023-08-21T12:44:40;40.10;49.60
32334;DHT22;18810;53.040;8.850;2023-08-21T12:47:06;40.00;48.70
32334;DHT22;18810;53.040;8.850;2023-08-21T12:49:31;40.40;51.70
32334;DHT22;18810;53.040;8.850;2023-08-21T12:51:57;41.00;52.90
32334;DHT22;18810;53.040;8.850;2023-08-21T12:54:23;41.10;52.70
32334;DHT22;18810;53.040;8.850;2023-08-21T12:56:49;41.10;52.60
32334;DHT22;18810;53.040;8.850;2023-08-21T12:59:14;40.80;51.20
32334;DHT22;18810;53.040;8.850;2023-08-21T13:01:40;40.80;52.30
32334;DHT22;18810;53.040;8.850;2023-08-21T13:04:06;40.60;52.30
32334;DHT22;18810;53.040;8.850;2023-08-21T13:06:31;40.10;52.50
32334;DHT22;18810;53.040;8.850;2023-08-21T13:08:57;39.70;52.90
32334;DHT22;18810;53.040;8.850;2023-08-21T13:11:23;40.10;51.60
32334;DHT22;18810;53.040;8.850;2023-08-21T13:13:49;40.30;50.70
32334;DHT22;18810;53.040;8.850;2023-08-21T13:16:14;40.60;52.10
32334;DHT22;18810;53.040;8.850;2023-08-21T13:18:40;40.90;50.90
32334;DHT22;18810;53.040;8.850;2023-08-21T13:21:07;41.00;50.10
32334;DHT22;18810;53.040;8.850;2023-08-21T13:23:33;41.30;51.00
32334;DHT22;18810;53.040;8.850;2023-08-21T13:26:00;41.70;51.70
32334;DHT22;18810;53.040;8.850;2023-08-21T13:28:26;41.70;51.20
32334;DHT22;18810;53.040;8.850;2023-08-21T13:30:52;41.40;50.30
32334;DHT22;18810;53.040;8.850;2023-08-21T13:33:20;40.20;48.50
32334;DHT22;18810;53.040;8.850;2023-08-21T13:35:46;39.40;49.70
32334;DHT22;18810;53.040;8.850;2023-08-21T13:38:16;38.70;50.50
32334;DHT22;18810;53.040;8.850;2023-08-21T13:40:42;37.90;50.40
32334;DHT22;18810;53.040;8.850;2023-08-21T13:43:08;37.70;51.80
32334;DHT22;18810;53.040;8.850;2023-08-21T13:45:36;37.90;52.90
32334;DHT22;18810;53.040;8.850;2023-08-21T13:48:02;38.10;51.20
32334;DHT22;18810;53.040;8.850;2023-08-21T13:50:29;38.00;51.20
32334;DHT22;18810;53.040;8.850;2023-08-21T13:52:55;37.70;50.60
32334;DHT22;18810;53.040;8.850;2023-08-21T13:55:22;37.40;51.10
32334;DHT22;18810;53.040;8.850;2023-08-21T13:57:47;37.40;51.40
32334;DHT22;18810;53.040;8.850;2023-08-21T14:00:13;38.10;51.40
32334;DHT22;18810;53.040;8.850;2023-08-21T14:02:40;38.70;49.50
32334;DHT22;18810;53.040;8.850;2023-08-21T14:05:07;39.20;48.70
32334;DHT22;18810;53.040;8.850;2023-08-21T14:07:34;39.80;48.10
32334;DHT22;18810;53.040;8.850;2023-08-21T14:10:01;40.40;46.60
32334;DHT22;18810;53.040;8.850;2023-08-21T14:12:29;40.80;47.10
32334;DHT22;18810;53.040;8.850;2023-08-21T14:14:56;41.40;47.10
32334;DHT22;18810;53.040;8.850;2023-08-21T14:17:21;42.20;46.80
32334;DHT22;18810;53.040;8.850;2023-08-21T14:19:47;42.80;44.70
32334;DHT22;18810;53.040;8.850;2023-08-21T14:22:13;42.50;44.50
32334;DHT22;18810;53.040;8.850;2023-08-21T14:24:38;42.50;44.60
32334;DHT22;18810;53.040;8.850;2023-08-21T14:27:04;42.60;43.20
32334;DHT22;18810;53.040;8.850;2023-08-21T14:29:30;42.30;42.90
32334;DHT22;18810;53.040;8.850;2023-08-21T14:31:57;41.90;43.20
32334;DHT22;18810;53.040;8.850;2023-08-21T14:34:23;42.20;43.50
32334;DHT22;18810;53.040;8.850;2023-08-21T14:36:49;42.30;44.40
32334;DHT22;18810;53.040;8.850;2023-08-21T14:39:15;42.40;43.20
32334;DHT22;18810;53.040;8.850;2023-08-21T14:41:42;42.40;44.60
32334;DHT22;18810;53.040;8.850;2023-08-21T14:44:08;42.00;44.60
32334;DHT22;18810;53.040;8.850;2023-08-21T14:46:34;42.00;44.70
32334;DHT22;18810;53.040;8.850;2023-08-21T14:49:00;41.90;44.40
32334;DHT22;18810;53.040;8.850;2023-08-21T14:51:26;41.40;46.10
32334;DHT22;18810;53.040;8.850;2023-08-21T14:53:51;41.10;46.00
32334;DHT22;18810;53.040;8.850;2023-08-21T14:56:17;41.00;46.40
32334;DHT22;18810;53.040;8.850;2023-08-21T14:58:43;40.20;46.40
32334;DHT22;18810;53.040;8.850;2023-08-21T15:01:10;40.20;46.90
32334;DHT22;18810;53.040;8.850;2023-08-21T15:03:38;39.70;47.60
32334;DHT22;18810;53.040;8.850;2023-08-21T15:06:04;39.80;46.90
32334;DHT22;18810;53.040;8.850;2023-08-21T15:08:31;40.10;47.40
32334;DHT22;18810;53.040;8.850;2023-08-21T15:10:57;40.00;46.80
32334;DHT22;18810;53.040;8.850;2023-08-21T15:13:22;39.90;47.10
32334;DHT22;18810;53.040;8.850;2023-08-21T15:15:48;39.90;47.40
32334;DHT22;18810;53.040;8.850;2023-08-21T15:18:14;40.10;47.40
32334;DHT22;18810;53.040;8.850;2023-08-21T15:20:39;40.40;46.80
32334;DHT22;18810;53.040;8.850;2023-08-21T15:23:05;40.70;47.00
32334;DHT22;18810;53.040;8.850;2023-08-21T15:25:31;41.00;46.30
32334;DHT22;18810;53.040;8.850;2023-08-21T15:27:56;40.80;45.70
32334;DHT22;18810;53.040;8.850;2023-08-21T15:30:22;40.70;45.20